Time;durP1;ratioP1;P1;durP2;ratioP2;P2;SDS_P1;SDS_P2;PMS_P1;PMS_P2;Temp;Humidity;BMP_temperature;BMP_pressure;BME280_temperature;BME280_humidity;BME280_pressure;Samples;Min_cycle;Max_cycle;Signal;HPM_P1;HPM_P2
2021/12/13 00:02:27;;;;;;;18.63;12.95;;;5.90;99.90;;;;;;4995668;28;20026;-48
2021/12/13 00:05:32;;;;;;;19.85;13.25;;;6.00;99.90;;;;;;4995386;28;20375;-45
2021/12/13 00:08:02;;;;;;;24.55;12.73;;;6.00;99.90;;;;;;4990951;28;20037;-48
2021/12/13 00:10:43;;;;;;;17.23;12.23;;;5.90;99.90;;;;;;4991275;28;20030;-45
2021/12/13 00:13:15;;;;;;;20.42;13.32;;;6.00;99.90;;;;;;4981910;28;20270;-47
2021/12/13 00:15:49;;;;;;;21.75;12.35;;;6.00;99.90;;;;;;4993772;28;20037;-45
2021/12/13 00:18:19;;;;;;;27.80;12.38;;;5.90;99.90;;;;;;4995343;28;20018;-52
2021/12/13 00:20:51;;;;;;;19.08;12.85;;;6.00;99.90;;;;;;4978900;28;20022;-46
2021/12/13 00:23:25;;;;;;;21.38;13.25;;;6.00;99.90;;;;;;4975862;28;20038;-46
2021/12/13 00:25:54;;;;;;;24.23;12.57;;;6.00;99.90;;;;;;4975823;28;20022;-47
2021/12/13 00:28:21;;;;;;;18.23;11.93;;;6.00;99.90;;;;;;4975699;28;20022;-54
2021/12/13 00:31:14;;;;;;;24.38;12.82;;;6.00;99.90;;;;;;4973920;28;20506;-49
2021/12/13 00:33:58;;;;;;;18.42;12.70;;;6.00;99.90;;;;;;4975153;28;20037;-51
2021/12/13 00:36:41;;;;;;;26.65;12.27;;;6.00;99.90;;;;;;4974642;28;20078;-49
2021/12/13 00:39:16;;;;;;;25.45;13.65;;;6.00;99.90;;;;;;4973955;28;20026;-54
2021/12/13 00:41:44;;;;;;;20.27;13.13;;;5.90;99.90;;;;;;4974986;28;20038;-49
2021/12/13 00:44:30;;;;;;;22.33;14.30;;;5.90;99.90;;;;;;4975078;28;20026;-51
2021/12/13 00:47:01;;;;;;;22.25;13.63;;;5.90;99.90;;;;;;4974909;28;20421;-48
2021/12/13 00:49:29;;;;;;;24.92;13.32;;;5.90;99.90;;;;;;4973131;28;20038;-47
2021/12/13 00:51:56;;;;;;;24.23;14.40;;;5.90;99.90;;;;;;4974908;28;20034;-47
2021/12/13 00:54:24;;;;;;;33.00;19.40;;;5.90;99.90;;;;;;4973579;28;20025;-48
2021/12/13 00:57:03;;;;;;;92.53;45.83;;;5.80;99.90;;;;;;4974765;28;20031;-47
2021/12/13 00:59:39;;;;;;;25.80;13.82;;;5.80;99.90;;;;;;4974431;28;20486;-48
2021/12/13 01:02:26;;;;;;;17.50;12.60;;;5.80;99.90;;;;;;4973725;28;20126;-47
2021/12/13 01:05:00;;;;;;;18.65;11.25;;;5.90;99.90;;;;;;4974623;28;20069;-50
2021/12/13 01:08:00;;;;;;;17.25;13.23;;;5.90;99.90;;;;;;4974761;28;20034;-49
2021/12/13 01:10:48;;;;;;;20.77;12.32;;;5.90;99.90;;;;;;4974213;28;20059;-47
2021/12/13 01:13:31;;;;;;;23.13;11.90;;;6.00;99.90;;;;;;4973289;28;20375;-47
2021/12/13 01:16:23;;;;;;;19.55;12.27;;;6.00;99.90;;;;;;4974362;28;20034;-51
2021/12/13 01:19:02;;;;;;;19.85;12.60;;;6.00;99.90;;;;;;4974272;28;20022;-48
2021/12/13 01:21:53;;;;;;;18.70;12.95;;;6.00;99.90;;;;;;4974673;28;20170;-49
2021/12/13 01:24:42;;;;;;;24.42;13.15;;;6.00;99.90;;;;;;4974490;28;20038;-49
2021/12/13 01:27:07;;;;;;;19.70;13.18;;;6.00;99.90;;;;;;4974202;28;20035;-47
2021/12/13 01:29:33;;;;;;;17.60;11.32;;;6.00;99.90;;;;;;4973647;28;20035;-46
2021/12/13 01:32:03;;;;;;;24.80;13.10;;;6.00;99.90;;;;;;4974210;28;20023;-48
2021/12/13 01:34:31;;;;;;;27.13;12.80;;;6.00;99.90;;;;;;4972062;28;20380;-47
2021/12/13 01:37:12;;;;;;;26.33;15.93;;;6.10;99.90;;;;;;4974145;28;20407;-48
2021/12/13 01:39:53;;;;;;;20.25;12.95;;;6.00;99.90;;;;;;4973621;28;20082;-49
2021/12/13 01:42:23;;;;;;;19.35;12.10;;;6.10;99.90;;;;;;4974135;28;20059;-50
2021/12/13 01:44:54;;;;;;;18.13;12.82;;;6.10;99.90;;;;;;4972499;28;20026;-49
2021/12/13 01:47:24;;;;;;;20.60;13.25;;;6.10;99.90;;;;;;4973886;28;20034;-50
2021/12/13 01:49:54;;;;;;;21.13;13.88;;;6.10;99.90;;;;;;4973597;28;20526;-48
2021/12/13 01:52:39;;;;;;;20.58;14.02;;;6.10;99.90;;;;;;4973736;28;20031;-53
2021/12/13 01:55:11;;;;;;;20.85;12.98;;;6.10;99.90;;;;;;4973718;28;20081;-46
2021/12/13 01:57:47;;;;;;;19.95;13.25;;;6.10;99.90;;;;;;4973732;28;20031;-52
2021/12/13 02:00:21;;;;;;;24.85;15.45;;;6.10;99.90;;;;;;4973522;28;20023;-51
2021/12/13 02:02:56;;;;;;;17.73;13.23;;;6.10;99.90;;;;;;4972693;28;20126;-49
2021/12/13 02:05:29;;;;;;;23.97;13.13;;;6.10;99.90;;;;;;4974107;28;20030;-49
2021/12/13 02:08:11;;;;;;;19.05;14.80;;;6.10;99.90;;;;;;4973278;28;20034;-46
2021/12/13 02:10:46;;;;;;;25.83;14.85;;;6.10;99.90;;;;;;4973095;28;20423;-46
2021/12/13 02:13:41;;;;;;;19.52;13.43;;;6.10;99.90;;;;;;4973270;28;20109;-48
2021/12/13 02:18:57;;;;;;;17.48;13.02;;;6.10;99.90;;;;;;4973433;28;20111;-50
2021/12/13 02:21:32;;;;;;;21.23;13.40;;;6.20;99.90;;;;;;4973087;28;20035;-50
2021/12/13 02:24:09;;;;;;;22.40;13.30;;;6.20;99.90;;;;;;4973227;28;20544;-49
2021/12/13 02:26:39;;;;;;;24.08;14.38;;;6.20;99.90;;;;;;4971939;28;20110;-46
2021/12/13 02:29:12;;;;;;;22.77;13.27;;;6.20;99.90;;;;;;4972476;28;20031;-52
2021/12/13 02:31:39;;;;;;;20.45;14.32;;;6.30;99.90;;;;;;4973181;28;20023;-46
2021/12/13 02:34:10;;;;;;;21.58;14.00;;;6.30;99.90;;;;;;4972905;28;20023;-50
2021/12/13 02:36:42;;;;;;;19.60;13.18;;;6.30;99.90;;;;;;4972385;28;20027;-48
2021/12/13 02:39:20;;;;;;;21.13;13.90;;;6.30;99.90;;;;;;4971482;28;20031;-45
2021/12/13 02:41:46;;;;;;;23.80;14.77;;;6.30;99.90;;;;;;4972885;28;20034;-45
2021/12/13 02:44:20;;;;;;;20.52;15.07;;;6.30;99.90;;;;;;4972932;28;20081;-47
2021/12/13 02:46:47;;;;;;;26.20;15.20;;;6.30;99.90;;;;;;4972738;28;20066;-52
2021/12/13 02:49:16;;;;;;;28.65;14.57;;;6.20;99.90;;;;;;4972452;28;20122;-46
2021/12/13 02:51:48;;;;;;;21.88;14.13;;;6.20;99.90;;;;;;4972600;28;20039;-47
2021/12/13 02:54:18;;;;;;;30.23;16.40;;;6.20;99.90;;;;;;4972744;28;20038;-46
2021/12/13 02:56:49;;;;;;;30.75;15.20;;;6.20;99.90;;;;;;4972447;28;20064;-46
2021/12/13 02:59:16;;;;;;;22.20;14.68;;;6.20;99.90;;;;;;4970866;28;20031;-49
2021/12/13 03:01:50;;;;;;;36.28;17.63;;;6.20;99.90;;;;;;4971111;28;20121;-46
2021/12/13 03:04:19;;;;;;;32.65;16.77;;;6.20;99.90;;;;;;4972679;28;20073;-47
2021/12/13 03:06:53;;;;;;;24.38;15.35;;;6.20;99.90;;;;;;4972421;28;20022;-48
2021/12/13 03:09:23;;;;;;;22.63;15.90;;;6.20;99.90;;;;;;4972013;28;20376;-46
2021/12/13 03:11:51;;;;;;;25.98;15.90;;;6.20;99.90;;;;;;4973746;28;20023;-50
2021/12/13 03:14:23;;;;;;;22.35;15.93;;;6.20;99.90;;;;;;4978402;28;20023;-53
2021/12/13 03:17:00;;;;;;;23.25;15.73;;;6.10;99.90;;;;;;4978228;28;20023;-52
2021/12/13 03:19:38;;;;;;;24.63;15.52;;;6.10;99.90;;;;;;4978040;28;20352;-53
2021/12/13 03:22:37;;;;;;;22.42;15.13;;;6.10;99.90;;;;;;4977204;28;20029;-51
2021/12/13 03:25:27;;;;;;;28.85;15.45;;;6.00;99.90;;;;;;4971957;28;20030;-46
2021/12/13 03:28:15;;;;;;;21.30;14.80;;;6.00;99.90;;;;;;4971233;28;20033;-46
2021/12/13 03:30:56;;;;;;;21.15;14.50;;;5.90;99.90;;;;;;4971823;28;20072;-46
2021/12/13 03:33:31;;;;;;;21.17;14.75;;;6.00;99.90;;;;;;4972581;28;20549;-46
2021/12/13 03:35:59;;;;;;;21.23;14.67;;;6.00;99.90;;;;;;4970835;28;20066;-46
2021/12/13 03:38:30;;;;;;;24.77;14.90;;;6.00;99.90;;;;;;4970900;28;20399;-45
2021/12/13 03:41:06;;;;;;;24.15;15.02;;;6.00;99.90;;;;;;4972341;28;20081;-45
2021/12/13 03:43:39;;;;;;;22.77;13.82;;;6.00;99.90;;;;;;4972296;28;20410;-47
2021/12/13 03:46:08;;;;;;;24.65;17.08;;;6.00;99.90;;;;;;4972264;28;20514;-51
2021/12/13 03:48:36;;;;;;;22.10;14.55;;;6.00;99.90;;;;;;4971390;28;20030;-48
2021/12/13 03:51:12;;;;;;;23.08;14.93;;;6.00;99.90;;;;;;4971766;28;20061;-51
2021/12/13 03:53:38;;;;;;;21.55;13.80;;;5.90;99.90;;;;;;4972508;28;20027;-52
2021/12/13 03:56:14;;;;;;;25.58;13.80;;;5.90;99.90;;;;;;4972346;28;20402;-46
2021/12/13 03:58:47;;;;;;;25.83;14.55;;;5.90;99.90;;;;;;4972204;28;20035;-45
2021/12/13 04:01:39;;;;;;;25.05;15.07;;;6.00;99.90;;;;;;4972202;28;20103;-48
2021/12/13 04:04:10;;;;;;;25.58;14.13;;;6.00;99.90;;;;;;4972109;28;20399;-50
2021/12/13 04:06:45;;;;;;;21.70;14.27;;;6.00;99.90;;;;;;4972430;28;20399;-48
2021/12/13 04:09:15;;;;;;;19.75;13.27;;;6.00;99.90;;;;;;4971985;28;20035;-51
2021/12/13 04:11:43;;;;;;;20.60;14.07;;;6.00;99.90;;;;;;4971178;28;20041;-47
2021/12/13 04:14:16;;;;;;;24.83;14.30;;;6.10;99.90;;;;;;4970837;28;20023;-49
2021/12/13 04:17:01;;;;;;;19.60;13.40;;;6.10;99.90;;;;;;4972431;28;20434;-46
2021/12/13 04:19:34;;;;;;;19.55;13.20;;;6.10;99.90;;;;;;4972425;28;20319;-46
2021/12/13 04:22:04;;;;;;;25.23;13.88;;;6.10;99.90;;;;;;4972483;28;20078;-46
2021/12/13 04:24:43;;;;;;;26.70;13.88;;;6.00;99.90;;;;;;4971815;28;20406;-51
2021/12/13 04:27:27;;;;;;;19.90;12.93;;;6.10;99.90;;;;;;4970958;28;20115;-49
2021/12/13 04:29:58;;;;;;;21.92;13.90;;;6.20;99.90;;;;;;4971112;28;20042;-51
2021/12/13 04:32:30;;;;;;;18.55;12.38;;;6.30;99.90;;;;;;4972115;28;20030;-48
2021/12/13 04:35:03;;;;;;;18.33;12.80;;;6.30;99.90;;;;;;4970830;28;20035;-46
2021/12/13 04:37:35;;;;;;;21.70;13.73;;;6.30;99.90;;;;;;4972226;28;20394;-46
2021/12/13 04:40:25;;;;;;;17.52;12.35;;;6.30;99.90;;;;;;4974842;28;20038;-46
2021/12/13 04:43:16;;;;;;;21.00;13.27;;;6.30;99.90;;;;;;4973516;28;20043;-47
2021/12/13 04:45:45;;;;;;;21.98;13.02;;;6.30;99.90;;;;;;4968777;28;20043;-46
2021/12/13 04:48:15;;;;;;;25.40;13.23;;;6.30;99.90;;;;;;4975166;28;20034;-46
2021/12/13 04:50:56;;;;;;;19.25;12.45;;;6.30;99.90;;;;;;4974865;28;20109;-46
2021/12/13 04:53:26;;;;;;;17.58;12.20;;;6.30;99.90;;;;;;4976073;28;20042;-45
2021/12/13 04:55:54;;;;;;;22.70;12.93;;;6.30;99.90;;;;;;4975014;28;20446;-46
2021/12/13 04:58:21;;;;;;;18.98;12.82;;;6.20;99.90;;;;;;4974716;28;20027;-47
2021/12/13 05:00:52;;;;;;;19.33;12.68;;;6.20;99.90;;;;;;4974614;28;20027;-49
2021/12/13 05:03:21;;;;;;;17.02;13.20;;;6.30;99.90;;;;;;4975013;28;20121;-46
2021/12/13 05:05:48;;;;;;;25.77;13.32;;;6.30;99.90;;;;;;4974802;28;20026;-47
2021/12/13 05:08:16;;;;;;;21.58;13.82;;;6.30;99.90;;;;;;4974863;28;20027;-46
2021/12/13 05:10:46;;;;;;;21.40;13.38;;;6.30;99.90;;;;;;4974306;28;20031;-46
2021/12/13 05:13:19;;;;;;;17.27;12.27;;;6.30;99.90;;;;;;4974788;28;20023;-46
2021/12/13 05:15:56;;;;;;;19.65;12.77;;;6.20;99.90;;;;;;4974715;28;20035;-46
2021/12/13 05:18:31;;;;;;;20.13;12.63;;;6.20;99.90;;;;;;4974044;28;20490;-46
2021/12/13 05:21:04;;;;;;;23.83;13.07;;;6.10;99.90;;;;;;4974270;28;20399;-46
2021/12/13 05:23:31;;;;;;;19.02;12.40;;;6.20;99.90;;;;;;4974739;28;20439;-47
2021/12/13 05:26:01;;;;;;;17.23;11.85;;;6.20;99.90;;;;;;4973300;28;20026;-49
2021/12/13 05:28:44;;;;;;;19.45;13.00;;;6.20;99.90;;;;;;4974366;28;20025;-45
2021/12/13 05:31:16;;;;;;;15.57;12.13;;;6.30;99.90;;;;;;4974155;28;20019;-47
2021/12/13 05:33:45;;;;;;;21.00;12.90;;;6.30;99.90;;;;;;4974456;28;20069;-45
2021/12/13 05:36:19;;;;;;;20.35;12.52;;;6.30;99.90;;;;;;4972865;28;20027;-46
2021/12/13 05:38:49;;;;;;;18.73;13.45;;;6.30;99.90;;;;;;4974326;28;20051;-43
2021/12/13 05:41:25;;;;;;;16.90;12.77;;;6.40;99.90;;;;;;4972685;28;20443;-45
2021/12/13 05:43:55;;;;;;;18.02;12.70;;;6.40;99.90;;;;;;4974109;28;20224;-49
2021/12/13 05:46:26;;;;;;;20.92;13.48;;;6.40;99.90;;;;;;4974404;28;20026;-50
2021/12/13 05:49:00;;;;;;;25.40;14.43;;;6.40;99.90;;;;;;4974201;28;20511;-48
2021/12/13 05:51:34;;;;;;;20.65;13.80;;;6.40;99.90;;;;;;4974104;28;20402;-47
2021/12/13 05:54:12;;;;;;;23.00;13.88;;;6.40;99.90;;;;;;4974377;28;20513;-48
2021/12/13 05:56:45;;;;;;;23.92;13.50;;;6.30;99.90;;;;;;4973667;28;20434;-46
2021/12/13 05:59:16;;;;;;;16.83;13.68;;;6.30;99.90;;;;;;4973509;28;20487;-48
2021/12/13 06:02:03;;;;;;;19.70;13.02;;;6.20;99.90;;;;;;4973676;28;20039;-48
2021/12/13 06:04:53;;;;;;;21.70;14.90;;;6.20;99.90;;;;;;4974451;28;20023;-47
2021/12/13 06:07:26;;;;;;;18.85;14.23;;;6.20;99.90;;;;;;4974051;28;20042;-49
2021/12/13 06:10:04;;;;;;;23.45;14.50;;;6.30;99.90;;;;;;4971796;28;20506;-47
2021/12/13 06:12:33;;;;;;;23.45;14.75;;;6.30;99.90;;;;;;4972300;28;20444;-46
2021/12/13 06:15:20;;;;;;;25.17;14.30;;;6.30;99.90;;;;;;4973328;28;20027;-45
2021/12/13 06:18:04;;;;;;;20.35;13.73;;;6.40;99.90;;;;;;4972175;28;20046;-46
2021/12/13 06:20:29;;;;;;;21.90;13.35;;;6.40;99.90;;;;;;4972992;28;20483;-52
2021/12/13 06:23:14;;;;;;;19.60;14.00;;;6.40;99.90;;;;;;4973864;28;20034;-50
2021/12/13 06:25:44;;;;;;;26.75;15.65;;;6.30;99.90;;;;;;4973453;28;20037;-47
2021/12/13 06:28:27;;;;;;;19.65;14.85;;;6.40;99.90;;;;;;4973266;28;20031;-52
2021/12/13 06:31:02;;;;;;;21.98;14.32;;;6.40;99.90;;;;;;4971801;28;20110;-48
2021/12/13 06:33:28;;;;;;;;;;;6.40;99.90;;;;;;4973493;28;20030;-52
2021/12/13 06:35:59;;;;;;;;;;;6.40;99.90;;;;;;4971746;28;19914;-50
2021/12/13 06:39:03;;;;;;;24.10;13.65;;;6.30;99.90;;;;;;4973456;28;20417;-48
2021/12/13 06:41:29;;;;;;;24.85;13.80;;;6.30;99.90;;;;;;4968270;28;20049;-47
2021/12/13 06:44:03;;;;;;;22.27;14.48;;;6.30;99.90;;;;;;4973138;28;20390;-49
2021/12/13 06:46:39;;;;;;;18.42;14.05;;;6.20;99.90;;;;;;4989755;23;20049;-52
2021/12/13 06:49:04;;;;;;;21.73;14.85;;;6.30;99.90;;;;;;4990462;28;20073;-51
2021/12/13 06:51:45;;;;;;;22.00;13.25;;;6.30;99.90;;;;;;4991835;28;20053;-50
2021/12/13 06:54:17;;;;;;;24.13;14.35;;;6.40;99.90;;;;;;4990801;28;20022;-48
2021/12/13 06:56:54;;;;;;;22.67;14.88;;;6.40;99.90;;;;;;4990672;28;20035;-48
2021/12/13 06:59:20;;;;;;;22.90;15.40;;;6.30;99.90;;;;;;4991023;28;20026;-54
2021/12/13 07:02:02;;;;;;;22.00;14.15;;;6.30;99.90;;;;;;4991992;28;20030;-52
2021/12/13 07:04:55;;;;;;;25.80;15.00;;;6.30;99.90;;;;;;4992055;28;20080;-54
2021/12/13 07:07:30;;;;;;;19.23;13.23;;;6.40;99.90;;;;;;4991836;28;20053;-50
2021/12/13 07:10:00;;;;;;;21.60;15.02;;;6.40;99.90;;;;;;4991390;28;20037;-57
2021/12/13 07:12:27;;;;;;;22.17;13.88;;;6.40;99.90;;;;;;4991891;28;20026;-53
2021/12/13 07:14:54;;;;;;;21.77;14.20;;;6.40;99.90;;;;;;4990470;28;20086;-54
2021/12/13 07:17:33;;;;;;;20.65;13.32;;;6.40;99.90;;;;;;4991612;28;20022;-58
2021/12/13 07:20:10;;;;;;;18.17;12.98;;;6.40;99.90;;;;;;4990353;28;20383;-53
2021/12/13 07:22:37;;;;;;;19.92;12.80;;;6.40;99.90;;;;;;4991784;28;20019;-51
2021/12/13 07:25:15;;;;;;;20.55;13.23;;;6.40;99.90;;;;;;4991794;28;20550;-50
2021/12/13 07:27:44;;;;;;;19.98;12.95;;;6.30;99.90;;;;;;4990335;28;20030;-54
2021/12/13 07:30:18;;;;;;;20.77;13.27;;;6.40;99.90;;;;;;4990082;28;20072;-49
2021/12/13 07:32:59;;;;;;;20.40;13.02;;;6.40;99.90;;;;;;4991624;28;20026;-49
2021/12/13 07:35:46;;;;;;;18.08;12.85;;;6.40;99.90;;;;;;4991370;28;20098;-51
2021/12/13 07:38:22;;;;;;;21.73;13.55;;;6.50;99.90;;;;;;4991502;28;20113;-51
2021/12/13 07:40:54;;;;;;;19.20;11.70;;;6.40;99.90;;;;;;4991340;28;20453;-53
2021/12/13 07:43:38;;;;;;;17.65;12.15;;;6.50;99.90;;;;;;4991570;28;20118;-50
2021/12/13 07:46:05;;;;;;;19.48;12.27;;;6.50;99.90;;;;;;4991560;28;20077;-55
2021/12/13 07:48:32;;;;;;;23.38;13.75;;;6.50;99.90;;;;;;4991789;28;20561;-54
2021/12/13 07:51:05;;;;;;;20.85;12.93;;;6.50;99.90;;;;;;4991088;28;20590;-51
2021/12/13 07:53:43;;;;;;;18.20;12.48;;;6.50;99.90;;;;;;4989978;28;20026;-52
2021/12/13 07:56:11;;;;;;;19.48;13.32;;;6.50;99.90;;;;;;4991521;28;20533;-52
2021/12/13 07:58:42;;;;;;;19.70;12.05;;;6.50;99.90;;;;;;4991549;28;20073;-51
2021/12/13 08:01:16;;;;;;;18.65;12.32;;;6.60;99.90;;;;;;4991323;28;20026;-53
2021/12/13 08:03:53;;;;;;;21.73;13.40;;;6.60;99.90;;;;;;4991327;28;20105;-53
2021/12/13 08:06:21;;;;;;;17.77;12.40;;;6.70;99.90;;;;;;4991435;28;20065;-55
2021/12/13 08:08:51;;;;;;;18.83;12.52;;;6.60;99.90;;;;;;4991435;28;20120;-55
2021/12/13 08:11:19;;;;;;;20.60;13.32;;;6.60;99.90;;;;;;4992913;28;20042;-57
2021/12/13 08:13:57;;;;;;;20.00;12.68;;;6.60;99.90;;;;;;4995036;28;20037;-51
2021/12/13 08:16:43;;;;;;;20.15;13.63;;;6.60;99.90;;;;;;4995074;28;20031;-56
2021/12/13 08:19:16;;;;;;;16.02;11.85;;;6.70;99.90;;;;;;4994834;28;20105;-52
2021/12/13 08:21:47;;;;;;;15.00;10.68;;;6.70;99.90;;;;;;4994845;28;20138;-53
2021/12/13 08:24:21;;;;;;;21.85;13.20;;;6.70;99.90;;;;;;4994895;28;20501;-50
2021/12/13 08:26:47;;;;;;;19.33;12.80;;;6.70;99.90;;;;;;4994742;28;20034;-52
2021/12/13 08:29:27;;;;;;;18.23;14.02;;;6.70;99.90;;;;;;4994529;28;20065;-51
2021/12/13 08:31:54;;;;;;;20.30;13.65;;;6.60;99.90;;;;;;4994623;28;20022;-52
2021/12/13 08:34:51;;;;;;;25.50;14.10;;;6.70;99.90;;;;;;4994950;28;20027;-53
2021/12/13 08:37:19;;;;;;;18.85;12.02;;;6.70;99.90;;;;;;4993565;28;20042;-55
2021/12/13 08:39:49;;;;;;;18.17;11.82;;;6.70;99.90;;;;;;5003713;28;20031;-59
2021/12/13 08:42:18;;;;;;;22.30;12.32;;;6.80;99.90;;;;;;5002993;28;20030;-53
2021/12/13 08:44:52;;;;;;;17.00;11.95;;;6.80;99.90;;;;;;4994193;28;20028;-52
2021/12/13 08:47:21;;;;;;;18.45;12.48;;;7.00;99.90;;;;;;4994262;28;20038;-51
2021/12/13 08:49:57;;;;;;;15.65;11.90;;;7.00;99.90;;;;;;4974369;28;20023;-55
2021/12/13 08:52:33;;;;;;;15.23;11.95;;;7.00;99.90;;;;;;4973388;28;20027;-55
2021/12/13 08:55:11;;;;;;;18.50;12.52;;;7.00;99.90;;;;;;4985762;28;20030;-54
2021/12/13 08:57:52;;;;;;;13.95;11.27;;;7.00;99.90;;;;;;4991266;28;20030;-50
2021/12/13 09:00:44;;;;;;;18.13;11.35;;;7.00;99.90;;;;;;4983772;28;20022;-49
2021/12/13 09:03:10;;;;;;;18.52;10.95;;;7.00;99.90;;;;;;4988306;28;20086;-50
2021/12/13 09:05:53;;;;;;;17.48;11.68;;;7.10;99.90;;;;;;4974379;28;20027;-51
2021/12/13 09:08:27;;;;;;;17.33;11.48;;;7.10;99.90;;;;;;4983484;28;20081;-51
2021/12/13 09:11:14;;;;;;;17.60;11.95;;;7.00;99.90;;;;;;4993044;28;20406;-54
2021/12/13 09:13:45;;;;;;;16.77;11.23;;;7.10;99.90;;;;;;4992754;28;20510;-48
2021/12/13 09:16:13;;;;;;;13.38;10.73;;;7.00;99.90;;;;;;4993828;28;20026;-54
2021/12/13 09:18:39;;;;;;;17.75;11.15;;;7.00;99.90;;;;;;4993549;28;20061;-54
2021/12/13 09:21:06;;;;;;;15.27;10.65;;;7.00;99.90;;;;;;4993452;28;20046;-52
2021/12/13 09:23:45;;;;;;;14.57;11.20;;;7.10;99.90;;;;;;4992835;28;20031;-50
2021/12/13 09:26:19;;;;;;;16.75;11.18;;;7.10;99.90;;;;;;4993523;28;20114;-56
2021/12/13 09:28:59;;;;;;;19.33;10.90;;;7.20;99.90;;;;;;4993328;28;20018;-53
2021/12/13 09:31:35;;;;;;;13.43;10.93;;;7.30;99.90;;;;;;4993426;28;20022;-55
2021/12/13 09:34:14;;;;;;;15.73;11.18;;;7.40;99.90;;;;;;4993757;28;20018;-51
2021/12/13 09:36:44;;;;;;;15.95;11.13;;;7.30;99.90;;;;;;4993234;28;20026;-51
2021/12/13 09:39:28;;;;;;;15.27;10.38;;;7.30;99.90;;;;;;4993186;28;20029;-51
2021/12/13 09:42:14;;;;;;;16.77;11.82;;;7.40;99.90;;;;;;4993322;28;20394;-56
2021/12/13 09:44:55;;;;;;;17.73;11.13;;;7.40;99.90;;;;;;4993638;28;20030;-56
2021/12/13 09:47:25;;;;;;;15.43;11.90;;;7.40;99.90;;;;;;4993255;28;20035;-49
2021/12/13 09:49:56;;;;;;;15.40;11.05;;;7.40;99.90;;;;;;4992613;28;20589;-54
2021/12/13 09:52:30;;;;;;;12.40;10.77;;;7.40;99.90;;;;;;4991897;28;20117;-51
2021/12/13 09:55:07;;;;;;;14.85;10.60;;;7.50;99.90;;;;;;4993143;28;20022;-49
2021/12/13 09:57:38;;;;;;;14.75;11.13;;;7.60;99.90;;;;;;4992741;28;20124;-51
2021/12/13 10:00:40;;;;;;;15.43;11.13;;;7.50;99.90;;;;;;4992961;28;20050;-52
2021/12/13 10:03:21;;;;;;;16.77;11.07;;;7.50;99.90;;;;;;4992787;28;20070;-52
2021/12/13 10:05:52;;;;;;;14.77;11.27;;;7.50;99.90;;;;;;4992860;28;20402;-52
2021/12/13 10:08:39;;;;;;;15.77;11.25;;;7.60;99.90;;;;;;4992893;28;20037;-48
2021/12/13 10:11:13;;;;;;;13.07;10.52;;;7.60;99.90;;;;;;4992587;28;20028;-48
2021/12/13 10:13:40;;;;;;;14.07;10.40;;;7.50;99.90;;;;;;4992995;28;20053;-48
2021/12/13 10:16:13;;;;;;;15.45;10.50;;;7.50;99.90;;;;;;4993062;28;20030;-51
2021/12/13 10:18:41;;;;;;;11.40;10.20;;;7.60;99.90;;;;;;4992732;28;20026;-50
2021/12/13 10:21:33;;;;;;;16.55;10.13;;;7.60;99.90;;;;;;4992830;28;20089;-51
2021/12/13 10:24:06;;;;;;;13.43;10.30;;;7.60;99.90;;;;;;4991700;28;20046;-49
2021/12/13 10:26:36;;;;;;;14.60;10.95;;;7.70;99.90;;;;;;4992596;28;20091;-50
2021/12/13 10:29:05;;;;;;;13.45;10.27;;;7.70;99.90;;;;;;4992562;28;20041;-54
2021/12/13 10:31:40;;;;;;;15.02;9.63;;;7.70;99.90;;;;;;4992200;28;20042;-54
2021/12/13 10:34:11;;;;;;;12.60;9.93;;;7.70;99.90;;;;;;4992062;28;20015;-47
2021/12/13 10:36:40;;;;;;;16.02;10.75;;;7.80;99.90;;;;;;4992356;28;20034;-55
2021/12/13 10:39:18;;;;;;;13.90;10.68;;;7.90;99.90;;;;;;4991592;28;20022;-51
2021/12/13 10:41:47;;;;;;;14.25;10.02;;;7.90;99.90;;;;;;4990271;28;20441;-51
2021/12/13 10:44:25;;;;;;;11.32;9.55;;;7.80;99.90;;;;;;4990602;28;20026;-51
2021/12/13 10:46:54;;;;;;;16.35;10.55;;;7.80;99.90;;;;;;4991190;28;20491;-50
2021/12/13 10:49:25;;;;;;;15.85;10.02;;;7.80;99.90;;;;;;4991486;28;20030;-53
2021/12/13 10:52:12;;;;;;;14.85;10.43;;;7.80;99.90;;;;;;4992562;28;20065;-54
2021/12/13 10:54:43;;;;;;;16.88;10.20;;;7.90;99.90;;;;;;4991859;28;20435;-50
2021/12/13 10:57:13;;;;;;;16.27;11.95;;;8.00;99.90;;;;;;4991996;28;20487;-55
2021/12/13 10:59:39;;;;;;;26.35;16.73;;;8.00;99.90;;;;;;4990113;28;20506;-50
2021/12/13 11:02:09;;;;;;;13.68;10.68;;;8.10;99.90;;;;;;4990338;28;20026;-51
2021/12/13 11:04:46;;;;;;;14.45;10.85;;;8.20;99.90;;;;;;4991716;28;20414;-54
2021/12/13 11:07:13;;;;;;;16.17;10.60;;;8.20;99.90;;;;;;4987032;28;20026;-51
2021/12/13 11:09:43;;;;;;;15.48;11.13;;;8.10;99.90;;;;;;4991328;28;20062;-49
2021/12/13 11:12:14;;;;;;;14.25;11.45;;;8.20;99.90;;;;;;4992107;28;20086;-51
2021/12/13 11:14:43;;;;;;;15.65;12.00;;;8.30;99.90;;;;;;4978362;28;20564;-47
2021/12/13 11:17:14;;;;;;;15.38;11.68;;;8.30;99.90;;;;;;4991959;28;20091;-48
2021/12/13 11:19:43;;;;;;;16.88;12.90;;;8.20;99.90;;;;;;4985953;28;20029;-50
2021/12/13 11:22:22;;;;;;;16.90;12.70;;;8.20;99.90;;;;;;4990770;28;20041;-48
2021/12/13 11:24:52;;;;;;;15.73;11.80;;;8.20;99.90;;;;;;4989234;28;20528;-45
2021/12/13 11:27:22;;;;;;;19.23;12.65;;;8.20;99.90;;;;;;4989866;28;20033;-42
2021/12/13 11:29:49;;;;;;;17.50;13.20;;;8.30;99.90;;;;;;4995650;28;20111;-43
2021/12/13 11:32:34;;;;;;;15.75;11.98;;;8.30;99.90;;;;;;4997406;28;20054;-43
2021/12/13 11:35:30;;;;;;;17.65;13.65;;;8.40;99.90;;;;;;4993657;28;20030;-48
2021/12/13 11:38:32;;;;;;;16.42;12.25;;;8.40;99.90;;;;;;4991959;28;20026;-48
2021/12/13 11:41:07;;;;;;;16.90;12.57;;;8.40;99.90;;;;;;4989614;28;20031;-46
2021/12/13 11:43:57;;;;;;;14.53;12.80;;;8.30;99.90;;;;;;4990136;28;20120;-44
2021/12/13 11:47:14;;;;;;;16.05;12.75;;;8.30;99.90;;;;;;4996882;28;20756;-45
2021/12/13 11:50:03;;;;;;;17.15;12.77;;;8.40;99.90;;;;;;4998845;28;20037;-50
2021/12/13 11:52:48;;;;;;;16.55;12.93;;;8.40;99.90;;;;;;5007148;28;20022;-47
2021/12/13 11:55:35;;;;;;;18.75;12.45;;;8.40;99.90;;;;;;5000892;28;20395;-46
2021/12/13 11:58:21;;;;;;;17.15;12.30;;;8.40;99.90;;;;;;5003095;28;20030;-42
2021/12/13 12:01:22;;;;;;;16.52;11.07;;;8.50;99.90;;;;;;4991915;28;20093;-49
2021/12/13 12:04:07;;;;;;;15.55;10.98;;;8.60;99.90;;;;;;4995927;28;20030;-43
2021/12/13 12:06:44;;;;;;;14.88;10.88;;;8.70;99.90;;;;;;4997869;28;20486;-49
2021/12/13 12:09:22;;;;;;;28.83;14.15;;;8.80;99.90;;;;;;5006144;28;20109;-45
2021/12/13 12:12:05;;;;;;;17.70;12.43;;;8.70;99.90;;;;;;4992672;28;20026;-41
2021/12/13 12:14:31;;;;;;;14.27;12.35;;;8.70;99.90;;;;;;5003265;28;20544;-46
2021/12/13 12:16:59;;;;;;;16.13;12.82;;;8.60;99.90;;;;;;5007585;28;20030;-43
2021/12/13 12:19:27;;;;;;;15.38;12.80;;;8.70;99.90;;;;;;4993413;28;20097;-49
2021/12/13 12:21:59;;;;;;;18.13;13.05;;;8.60;99.90;;;;;;4996447;28;20034;-48
2021/12/13 12:24:28;;;;;;;20.58;12.90;;;8.60;99.90;;;;;;4993209;28;20180;-45
2021/12/13 12:26:58;;;;;;;18.65;13.07;;;8.70;99.90;;;;;;4999015;28;20041;-53
2021/12/13 12:29:28;;;;;;;17.15;12.82;;;8.70;99.90;;;;;;4998859;28;20533;-53
2021/12/13 12:32:07;;;;;;;18.83;15.05;;;8.70;99.90;;;;;;4993543;28;20030;-56
2021/12/13 12:34:45;;;;;;;29.38;18.00;;;8.70;99.90;;;;;;4995965;28;20026;-55
2021/12/13 12:37:48;;;;;;;23.73;14.65;;;8.70;99.90;;;;;;4989810;28;20034;-51
2021/12/13 12:40:23;;;;;;;19.25;12.50;;;8.80;99.90;;;;;;4990773;28;20037;-53
2021/12/13 12:42:52;;;;;;;16.40;11.80;;;8.80;99.90;;;;;;4988747;28;20034;-55
2021/12/13 12:45:30;;;;;;;16.75;12.68;;;8.80;99.90;;;;;;4999132;28;20057;-53
2021/12/13 12:48:02;;;;;;;12.98;11.63;;;8.80;99.90;;;;;;4999420;28;20508;-52
2021/12/13 12:50:39;;;;;;;18.05;12.93;;;8.80;99.90;;;;;;5007208;28;21260;-50
2021/12/13 12:53:34;;;;;;;15.20;12.32;;;8.90;99.90;;;;;;4991975;28;20510;-58
2021/12/13 12:56:24;;;;;;;15.30;12.05;;;8.90;99.90;;;;;;4990152;28;20045;-48
2021/12/13 12:58:55;;;;;;;14.80;11.27;;;8.90;99.90;;;;;;4998827;28;20149;-50
2021/12/13 13:01:36;;;;;;;15.48;12.25;;;8.80;99.90;;;;;;5002437;28;20034;-52
2021/12/13 13:04:24;;;;;;;20.80;13.43;;;8.90;99.90;;;;;;4992530;28;20019;-52
2021/12/13 13:06:52;;;;;;;21.85;13.07;;;8.90;99.90;;;;;;5001025;28;20076;-53
2021/12/13 13:09:17;;;;;;;17.58;13.43;;;8.90;99.90;;;;;;4993195;28;20494;-52
2021/12/13 13:11:46;;;;;;;20.85;12.85;;;8.90;99.90;;;;;;4994335;28;20292;-45
2021/12/13 13:14:17;;;;;;;19.70;14.30;;;8.90;99.90;;;;;;4993914;28;20450;-51
2021/12/13 13:16:45;;;;;;;18.50;13.20;;;9.00;99.90;;;;;;4993114;28;20022;-47
2021/12/13 13:19:29;;;;;;;23.77;13.70;;;9.00;99.90;;;;;;4993520;28;20026;-47
2021/12/13 13:21:58;;;;;;;19.58;13.35;;;9.00;99.90;;;;;;4992586;28;20528;-51
2021/12/13 13:24:24;;;;;;;19.70;15.18;;;8.90;99.90;;;;;;4993181;28;20026;-46